createdAt,value
2023-01-20T00:01:48.120Z,12.98
2023-01-20T00:04:22.874Z,11.48
2023-01-20T00:06:56.249Z,11.70
2023-01-20T00:09:29.562Z,12.52
2023-01-20T00:12:02.880Z,12.07
2023-01-20T00:14:36.434Z,12.73
2023-01-20T00:17:09.732Z,12.55
2023-01-20T00:19:44.395Z,12.82
2023-01-20T00:22:17.715Z,13.38
2023-01-20T00:24:51.031Z,12.10
2023-01-20T00:27:24.363Z,11.63
2023-01-20T00:29:57.694Z,13.57
2023-01-20T00:32:30.990Z,11.85
2023-01-20T00:35:06.469Z,12.60
2023-01-20T00:37:40.220Z,12.77
2023-01-20T00:40:13.886Z,10.63
2023-01-20T00:45:20.434Z,12.27
2023-01-20T00:47:53.748Z,12.00
2023-01-20T00:50:28.441Z,11.98
2023-01-20T00:53:01.717Z,11.18
2023-01-20T00:55:35.093Z,12.45
2023-01-20T00:58:08.437Z,12.88
2023-01-20T01:00:41.883Z,12.63
2023-01-20T01:03:15.403Z,11.15
2023-01-20T01:05:50.140Z,11.57
2023-01-20T01:08:23.449Z,12.55
2023-01-20T01:10:57.254Z,12.20
2023-01-20T01:16:03.744Z,12.23
2023-01-20T01:18:37.242Z,12.10
2023-01-20T01:21:13.703Z,11.25
2023-01-20T01:23:47.215Z,11.88
2023-01-20T01:26:20.639Z,11.75
2023-01-20T01:28:53.939Z,13.32
2023-01-20T01:31:27.439Z,12.48
2023-01-20T01:34:00.881Z,11.90
2023-01-20T01:36:35.604Z,11.13
2023-01-20T01:39:08.915Z,12.73
2023-01-20T01:41:42.212Z,12.43
2023-01-20T01:44:16.482Z,10.75
2023-01-20T01:46:49.884Z,10.70
2023-01-20T01:49:29.194Z,9.77
2023-01-20T01:52:06.739Z,10.13
2023-01-20T01:54:42.837Z,10.30
2023-01-20T01:57:16.327Z,10.35
2023-01-20T01:59:49.653Z,10.40
2023-01-20T02:02:24.081Z,9.88
2023-01-20T02:04:57.578Z,12.70
2023-01-20T02:07:34.630Z,10.63
2023-01-20T02:10:08.733Z,11.45
2023-01-20T02:12:43.524Z,11.38
2023-01-20T02:15:22.889Z,11.82
2023-01-20T02:18:14.459Z,10.68
2023-01-20T02:21:19.576Z,11.35
2023-01-20T02:24:29.007Z,10.80
2023-01-20T02:27:11.151Z,11.00
2023-01-20T02:30:18.428Z,11.13
2023-01-20T02:32:57.456Z,11.15
2023-01-20T02:35:36.644Z,10.90
2023-01-20T02:38:17.211Z,10.95
2023-01-20T02:40:57.342Z,9.75
2023-01-20T02:43:37.883Z,10.43
2023-01-20T02:46:15.658Z,10.93
2023-01-20T02:48:55.961Z,10.63
2023-01-20T02:51:32.978Z,10.60
2023-01-20T02:54:10.171Z,11.82
2023-01-20T02:56:44.202Z,12.20
2023-01-20T02:59:21.960Z,10.98
2023-01-20T03:01:58.998Z,11.40
2023-01-20T03:04:37.691Z,10.23
2023-01-20T03:07:13.820Z,11.75
2023-01-20T03:09:52.193Z,11.18
2023-01-20T03:12:30.682Z,12.13
2023-01-20T03:15:04.641Z,10.43
2023-01-20T03:17:38.153Z,10.80
2023-01-20T03:20:13.841Z,10.95
2023-01-20T03:22:47.233Z,9.85
2023-01-20T03:25:21.618Z,10.93
2023-01-20T03:27:54.918Z,11.40
2023-01-20T03:30:28.292Z,11.43
2023-01-20T03:33:02.958Z,11.38
2023-01-20T03:35:39.096Z,10.43
2023-01-20T03:38:12.682Z,11.07
2023-01-20T03:40:54.429Z,10.98
2023-01-20T03:43:33.334Z,11.52
2023-01-20T03:46:12.899Z,10.70
2023-01-20T03:48:52.054Z,10.20
2023-01-20T03:51:34.950Z,12.48
2023-01-20T03:54:12.303Z,11.15
2023-01-20T03:56:52.384Z,11.20
2023-01-20T03:59:26.743Z,10.35
2023-01-20T04:02:03.532Z,10.15
2023-01-20T04:04:39.733Z,10.10
2023-01-20T04:07:21.551Z,10.10
2023-01-20T04:09:59.905Z,9.25
2023-01-20T04:12:33.414Z,10.35
2023-01-20T04:15:09.016Z,10.57
2023-01-20T04:17:42.533Z,10.93
2023-01-20T04:20:17.353Z,9.45
2023-01-20T04:22:56.953Z,9.75
2023-01-20T04:25:31.996Z,11.02
2023-01-20T04:28:05.288Z,10.50
2023-01-20T04:30:38.613Z,9.45
2023-01-20T04:33:11.919Z,10.70
2023-01-20T04:35:45.226Z,9.75
2023-01-20T04:38:19.923Z,10.50
2023-01-20T04:40:53.443Z,10.23
2023-01-20T04:43:26.732Z,10.77
2023-01-20T04:46:00.057Z,10.75
2023-01-20T04:48:33.374Z,10.13
2023-01-20T04:51:07.529Z,10.18
2023-01-20T04:53:42.327Z,10.05
2023-01-20T04:56:16.846Z,10.02
2023-01-20T04:58:50.154Z,10.55
2023-01-20T05:01:23.581Z,10.20
2023-01-20T05:03:56.979Z,10.27
2023-01-20T05:06:30.364Z,9.25
2023-01-20T05:09:05.262Z,9.70
2023-01-20T05:11:38.582Z,9.27
2023-01-20T05:14:12.360Z,9.60
2023-01-20T05:19:22.867Z,9.70
2023-01-20T05:21:56.164Z,9.95
2023-01-20T05:24:31.426Z,10.55
2023-01-20T05:27:04.975Z,10.52
2023-01-20T05:29:38.279Z,9.38
2023-01-20T05:32:11.844Z,10.27
2023-01-20T05:34:45.138Z,8.93
2023-01-20T05:37:18.748Z,9.98
2023-01-20T05:39:53.399Z,9.05
2023-01-20T05:42:26.748Z,8.88
2023-01-20T05:45:00.117Z,9.52
2023-01-20T05:47:33.429Z,8.95
2023-01-20T05:50:07.314Z,9.07
2023-01-20T05:52:40.675Z,9.93
2023-01-20T05:55:15.655Z,10.07
2023-01-20T05:57:49.333Z,8.80
2023-01-20T06:00:23.429Z,9.13
2023-01-20T06:02:56.785Z,9.40
2023-01-20T06:05:30.392Z,11.02
2023-01-20T06:08:03.851Z,9.80
2023-01-20T06:10:38.555Z,9.80
2023-01-20T06:13:11.835Z,9.45
2023-01-20T06:15:45.139Z,9.73
2023-01-20T06:18:18.470Z,9.07
2023-01-20T06:20:52.311Z,10.13
2023-01-20T06:23:26.321Z,8.88
2023-01-20T06:26:02.620Z,8.82
2023-01-20T06:28:36.418Z,9.30
2023-01-20T06:31:11.405Z,8.43
2023-01-20T06:33:45.271Z,7.88
2023-01-20T06:38:53.001Z,8.45
2023-01-20T06:41:27.756Z,7.63
2023-01-20T06:44:01.106Z,9.18
2023-01-20T06:46:34.542Z,9.45
2023-01-20T06:49:08.134Z,8.23
2023-01-20T06:51:41.852Z,10.82
2023-01-20T06:56:49.646Z,11.27
2023-01-20T06:59:22.947Z,9.82
2023-01-20T07:01:56.475Z,10.80
2023-01-20T07:04:29.870Z,10.02
2023-01-20T07:07:03.152Z,11.23
2023-01-20T07:09:36.478Z,11.88
2023-01-20T07:12:11.193Z,9.88
2023-01-20T07:14:44.474Z,10.68
2023-01-20T07:17:17.791Z,11.18
2023-01-20T07:19:51.100Z,13.30
2023-01-20T07:22:24.492Z,11.50
2023-01-20T07:24:57.850Z,12.65
2023-01-20T07:27:32.520Z,10.65
2023-01-20T07:30:06.907Z,12.95
2023-01-20T07:32:40.205Z,12.60
2023-01-20T07:35:14.249Z,11.13
2023-01-20T07:37:47.790Z,12.50
2023-01-20T07:40:21.371Z,12.52
2023-01-20T07:42:56.086Z,11.20
2023-01-20T07:45:29.419Z,11.43
2023-01-20T07:48:03.836Z,11.43
2023-01-20T07:50:37.594Z,13.93
2023-01-20T07:55:44.314Z,14.35
2023-01-20T07:58:19.141Z,30.98
2023-01-20T08:00:52.532Z,38.28
2023-01-20T08:03:27.499Z,34.55
2023-01-20T08:06:03.701Z,32.85
2023-01-20T08:08:37.484Z,31.42
2023-01-20T08:13:48.029Z,26.05
2023-01-20T08:16:21.609Z,26.45
2023-01-20T08:18:55.277Z,22.85
2023-01-20T08:21:30.647Z,23.00
2023-01-20T08:24:06.601Z,22.33
2023-01-20T08:26:40.113Z,21.10
2023-01-20T08:29:14.769Z,20.90
2023-01-20T08:31:48.306Z,20.23
2023-01-20T08:34:23.191Z,18.85
2023-01-20T08:36:57.571Z,17.98
2023-01-20T08:39:30.957Z,18.00
2023-01-20T08:42:04.324Z,17.92
2023-01-20T08:44:39.031Z,18.25
2023-01-20T08:47:12.370Z,16.38
2023-01-20T08:49:45.670Z,16.52
2023-01-20T08:52:19.152Z,14.20
2023-01-20T08:54:54.085Z,14.77
2023-01-20T08:57:27.538Z,14.30
2023-01-20T09:00:02.317Z,13.52
2023-01-20T09:02:35.850Z,13.50
2023-01-20T09:05:10.207Z,13.82
2023-01-20T09:07:44.651Z,13.57
2023-01-20T09:10:18.183Z,14.07
2023-01-20T09:12:51.504Z,12.50
2023-01-20T09:15:26.185Z,12.95
2023-01-20T09:17:59.826Z,11.95
2023-01-20T09:20:33.282Z,12.55
2023-01-20T09:23:06.592Z,10.68
2023-01-20T09:25:39.892Z,11.98
2023-01-20T09:28:14.226Z,11.82
2023-01-20T09:30:49.030Z,11.75
2023-01-20T09:33:22.661Z,12.60
2023-01-20T09:35:56.680Z,9.90
2023-01-20T09:38:47.509Z,11.00
2023-01-20T09:41:47.007Z,11.35
2023-01-20T09:44:45.362Z,10.32
2023-01-20T09:47:30.979Z,9.95
2023-01-20T09:50:42.735Z,11.70
2023-01-20T09:53:32.745Z,11.52
2023-01-20T09:56:12.469Z,12.05
2023-01-20T09:58:51.628Z,11.00
2023-01-20T10:01:30.990Z,12.07
2023-01-20T10:04:14.842Z,12.38
2023-01-20T10:06:51.824Z,9.93
2023-01-20T10:09:33.780Z,11.88
2023-01-20T10:12:14.022Z,15.77
2023-01-20T10:14:51.171Z,19.80
2023-01-20T10:17:31.244Z,27.48
2023-01-20T10:20:12.839Z,40.13
2023-01-20T10:22:53.081Z,34.35
2023-01-20T10:25:29.304Z,43.17
2023-01-20T10:28:09.157Z,36.25
2023-01-20T10:30:44.563Z,37.63
2023-01-20T10:33:25.833Z,34.47
2023-01-20T10:36:02.057Z,36.13
2023-01-20T10:38:44.177Z,32.75
2023-01-20T10:41:21.459Z,30.02
2023-01-20T10:43:55.031Z,32.15
2023-01-20T10:46:52.809Z,29.80
2023-01-20T10:49:47.399Z,19.77
2023-01-20T10:52:47.959Z,31.38
2023-01-20T10:55:30.787Z,30.63
2023-01-20T10:58:16.694Z,29.35
2023-01-20T11:00:51.043Z,25.92
2023-01-20T11:03:25.125Z,26.13
2023-01-20T11:05:58.752Z,27.17
2023-01-20T11:08:33.507Z,24.23
2023-01-20T11:11:13.531Z,27.20
2023-01-20T11:13:47.432Z,26.77
2023-01-20T11:19:01.781Z,24.05
2023-01-20T11:21:37.196Z,21.67
2023-01-20T11:24:39.014Z,21.90
2023-01-20T11:27:17.421Z,21.40
2023-01-20T11:29:54.057Z,21.33
2023-01-20T11:32:30.721Z,20.63
2023-01-20T11:35:20.955Z,22.33
2023-01-20T11:37:54.503Z,21.77
2023-01-20T11:40:30.336Z,19.70
2023-01-20T11:43:03.748Z,21.02
2023-01-20T11:45:38.342Z,18.25
2023-01-20T11:48:21.638Z,18.70
2023-01-20T11:50:58.556Z,20.27
2023-01-20T11:53:33.060Z,18.95
2023-01-20T11:56:19.228Z,16.65
2023-01-20T11:58:56.191Z,17.00
2023-01-20T12:01:31.328Z,15.85
2023-01-20T12:04:24.193Z,16.80
2023-01-20T12:07:01.640Z,15.88
2023-01-20T12:09:38.932Z,16.50
2023-01-20T12:12:21.948Z,16.38
2023-01-20T12:15:00.607Z,16.25
2023-01-20T12:17:51.564Z,16.33
2023-01-20T12:20:29.800Z,15.27
2023-01-20T12:23:21.073Z,16.40
2023-01-20T12:25:58.230Z,16.13
2023-01-20T12:28:39.876Z,16.95
2023-01-20T12:31:14.629Z,14.30
2023-01-20T12:33:50.823Z,14.70
2023-01-20T12:39:53.654Z,15.30
2023-01-20T12:42:59.661Z,15.38
2023-01-20T12:45:59.563Z,14.00
2023-01-20T12:48:43.432Z,15.80
2023-01-20T12:51:37.955Z,15.73
2023-01-20T12:54:48.323Z,13.63
2023-01-20T12:57:38.044Z,14.40
2023-01-20T13:00:31.414Z,15.60
2023-01-20T13:03:40.773Z,14.90
2023-01-20T13:06:39.471Z,13.77
2023-01-20T13:09:32.254Z,14.85
2023-01-20T13:12:22.198Z,13.52
2023-01-20T13:15:00.923Z,13.38
2023-01-20T13:17:41.562Z,13.32
2023-01-20T13:20:23.107Z,14.63
2023-01-20T13:22:57.612Z,12.63
2023-01-20T13:25:31.741Z,13.27
2023-01-20T13:28:07.806Z,13.40
2023-01-20T13:30:44.067Z,12.35
2023-01-20T13:33:27.668Z,12.50
2023-01-20T13:36:13.850Z,12.27
2023-01-20T13:38:48.453Z,11.68
2023-01-20T13:41:50.682Z,11.63
2023-01-20T13:44:35.332Z,11.90
2023-01-20T13:47:10.836Z,11.07
2023-01-20T13:49:50.799Z,11.23
2023-01-20T13:53:01.227Z,11.32
2023-01-20T13:55:54.378Z,11.45
2023-01-20T13:58:29.570Z,11.10
2023-01-20T14:01:04.809Z,10.77
2023-01-20T14:03:39.630Z,10.80
2023-01-20T14:06:23.680Z,11.07
2023-01-20T14:08:57.169Z,10.77
2023-01-20T14:11:32.362Z,10.52
2023-01-20T14:14:06.477Z,11.02
2023-01-20T14:16:42.389Z,10.98
2023-01-20T14:19:23.281Z,10.07
2023-01-20T14:21:58.701Z,10.70
2023-01-20T14:24:33.887Z,10.93
2023-01-20T14:27:11.942Z,9.02
2023-01-20T14:29:46.585Z,8.77
2023-01-20T14:34:57.168Z,8.40
2023-01-20T14:37:32.974Z,9.07
2023-01-20T14:40:24.065Z,9.10
2023-01-20T14:43:00.349Z,7.93
2023-01-20T14:45:34.580Z,9.55
2023-01-20T14:48:08.407Z,8.70
2023-01-20T14:53:15.948Z,8.23
2023-01-20T14:56:01.425Z,8.63
2023-01-20T14:58:36.588Z,8.65
2023-01-20T15:01:21.979Z,9.30
2023-01-20T15:03:59.792Z,9.00
2023-01-20T15:06:33.103Z,8.82
2023-01-20T15:09:23.374Z,8.10
2023-01-20T15:12:33.797Z,8.55
2023-01-20T15:15:30.555Z,7.57
2023-01-20T15:18:21.642Z,7.78
2023-01-20T15:21:15.561Z,8.32
2023-01-20T15:23:52.659Z,8.55
2023-01-20T15:26:29.539Z,8.75
2023-01-20T15:29:02.869Z,8.57
2023-01-20T15:31:37.580Z,8.02
2023-01-20T15:34:13.518Z,9.05
2023-01-20T15:36:47.910Z,7.88
2023-01-20T15:39:23.381Z,8.50
2023-01-20T15:41:57.144Z,8.88
2023-01-20T15:47:13.937Z,8.68
2023-01-20T15:49:47.480Z,9.80
2023-01-20T15:52:20.853Z,9.15
2023-01-20T15:54:54.161Z,9.57
2023-01-20T15:57:27.454Z,7.97
2023-01-20T16:00:00.865Z,8.75
2023-01-20T16:02:36.975Z,7.88
2023-01-20T16:05:14.566Z,8.05
2023-01-20T16:07:50.342Z,8.55
2023-01-20T16:10:23.803Z,7.50
2023-01-20T16:12:57.106Z,8.32
2023-01-20T16:15:30.422Z,8.27
2023-01-20T16:18:05.871Z,7.93
2023-01-20T16:20:39.290Z,7.90
2023-01-20T16:23:13.407Z,8.63
2023-01-20T16:25:46.984Z,7.50
2023-01-20T16:28:24.097Z,7.80
2023-01-20T16:30:57.938Z,8.27
2023-01-20T16:36:11.741Z,7.20
2023-01-20T16:38:45.915Z,7.30
2023-01-20T16:41:22.977Z,7.60
2023-01-20T16:43:58.403Z,7.97
2023-01-20T16:46:33.441Z,7.03
2023-01-20T16:49:08.232Z,7.82
2023-01-20T16:51:42.012Z,8.00
2023-01-20T16:56:48.531Z,7.18
2023-01-20T16:59:21.892Z,7.53
2023-01-20T17:01:55.389Z,7.38
2023-01-20T17:04:30.504Z,6.47
2023-01-20T17:07:06.142Z,6.35
2023-01-20T17:09:41.767Z,6.57
2023-01-20T17:12:16.886Z,6.78
2023-01-20T17:14:50.491Z,7.50
2023-01-20T17:17:23.815Z,7.05
2023-01-20T17:19:58.480Z,6.03
2023-01-20T17:22:31.758Z,6.70
2023-01-20T17:25:05.809Z,6.05
2023-01-20T17:27:39.216Z,5.65
2023-01-20T17:30:13.383Z,6.47
2023-01-20T17:32:48.475Z,6.38
2023-01-20T17:35:23.257Z,6.38
2023-01-20T17:37:58.066Z,6.53
2023-01-20T17:40:31.708Z,7.07
2023-01-20T17:43:05.356Z,6.82
2023-01-20T17:45:38.681Z,6.55
2023-01-20T17:48:12.100Z,6.63
2023-01-20T17:50:46.850Z,6.22
2023-01-20T17:53:20.163Z,6.20
2023-01-20T17:56:06.638Z,6.55
2023-01-20T17:58:46.256Z,7.70
2023-01-20T18:01:21.213Z,7.57
2023-01-20T18:03:55.978Z,6.93
2023-01-20T18:06:34.877Z,9.40
2023-01-20T18:09:09.037Z,8.65
2023-01-20T18:11:43.599Z,9.52
2023-01-20T18:14:16.952Z,8.65
2023-01-20T18:16:50.614Z,8.45
2023-01-20T18:22:00.438Z,8.07
2023-01-20T18:24:33.883Z,8.57
2023-01-20T18:27:07.390Z,9.18
2023-01-20T18:29:40.704Z,10.07
2023-01-20T18:32:14.015Z,8.23
2023-01-20T18:34:47.321Z,8.25
2023-01-20T18:37:22.022Z,8.02
2023-01-20T18:39:55.412Z,8.38
2023-01-20T18:42:28.819Z,8.18
2023-01-20T18:45:02.227Z,6.95
2023-01-20T18:47:35.633Z,8.05
2023-01-20T18:50:09.892Z,7.10
2023-01-20T18:52:44.943Z,6.97
2023-01-20T18:55:18.517Z,7.25
2023-01-20T18:57:51.858Z,7.10
2023-01-20T19:00:25.272Z,7.00
2023-01-20T19:02:58.855Z,7.15
2023-01-20T19:05:33.094Z,7.30
2023-01-20T19:08:08.241Z,6.00
2023-01-20T19:10:41.546Z,6.93
2023-01-20T19:13:14.884Z,6.78
2023-01-20T19:15:48.234Z,6.35
2023-01-20T19:18:21.590Z,6.25
2023-01-20T19:20:54.916Z,6.45
2023-01-20T19:23:29.679Z,6.22
2023-01-20T19:26:03.915Z,5.50
2023-01-20T19:28:37.679Z,5.50
2023-01-20T19:31:12.834Z,6.22
2023-01-20T19:33:48.863Z,5.88
2023-01-20T19:36:23.431Z,5.25
2023-01-20T19:38:58.694Z,5.15
2023-01-20T19:41:33.461Z,4.82
2023-01-20T19:44:07.807Z,4.78
2023-01-20T19:46:41.257Z,4.88
2023-01-20T19:49:14.629Z,5.05
2023-01-20T19:51:48.033Z,4.40
2023-01-20T19:54:24.285Z,5.22
2023-01-20T19:56:57.681Z,4.63
2023-01-20T19:59:31.017Z,5.25
2023-01-20T20:02:04.354Z,4.18
2023-01-20T20:04:37.913Z,5.18
2023-01-20T20:07:11.191Z,4.07
2023-01-20T20:09:46.279Z,4.72
2023-01-20T20:12:19.611Z,4.25
2023-01-20T20:14:52.935Z,4.00
2023-01-20T20:17:27.047Z,3.83
2023-01-20T20:20:00.392Z,3.95
2023-01-20T20:22:33.738Z,3.85
2023-01-20T20:25:11.549Z,4.18
2023-01-20T20:27:45.035Z,3.30
2023-01-20T20:30:21.504Z,4.10
2023-01-20T20:32:57.997Z,3.80
2023-01-20T20:35:31.535Z,3.90
2023-01-20T20:38:04.905Z,3.50
2023-01-20T20:40:39.585Z,3.67
2023-01-20T20:43:12.933Z,3.40
2023-01-20T20:45:46.280Z,3.72
2023-01-20T20:48:19.694Z,4.35
2023-01-20T20:50:53.754Z,3.80
2023-01-20T20:53:27.246Z,3.85
2023-01-20T20:56:04.149Z,4.35
2023-01-20T20:58:45.658Z,3.58
2023-01-20T21:01:30.062Z,3.53
2023-01-20T21:04:03.979Z,3.00
2023-01-20T21:06:37.462Z,3.40
2023-01-20T21:09:11.165Z,3.17
2023-01-20T21:11:45.871Z,3.10
2023-01-20T21:14:22.213Z,3.60
2023-01-20T21:16:55.553Z,4.05
2023-01-20T21:19:28.917Z,3.33
2023-01-20T21:22:02.181Z,3.42
2023-01-20T21:24:35.517Z,3.25
2023-01-20T21:27:10.229Z,3.20
2023-01-20T21:29:44.420Z,3.88
2023-01-20T21:32:17.874Z,3.03
2023-01-20T21:34:51.279Z,3.50
2023-01-20T21:37:24.920Z,3.25
2023-01-20T21:39:58.241Z,3.88
2023-01-20T21:42:33.095Z,3.45
2023-01-20T21:45:06.201Z,3.80
2023-01-20T21:47:41.442Z,3.70
2023-01-20T21:50:32.533Z,3.20
2023-01-20T21:53:05.830Z,3.28
2023-01-20T21:55:39.131Z,3.45
2023-01-20T21:58:13.806Z,3.38
2023-01-20T22:00:50.337Z,2.97
2023-01-20T22:03:23.694Z,3.00
2023-01-20T22:05:56.977Z,3.40
2023-01-20T22:08:30.263Z,3.22
2023-01-20T22:11:03.568Z,3.20
2023-01-20T22:13:38.214Z,3.28
2023-01-20T22:16:11.608Z,3.97
2023-01-20T22:18:46.721Z,3.40
2023-01-20T22:21:20.873Z,2.75
2023-01-20T22:23:54.706Z,4.18
2023-01-20T22:29:02.829Z,3.80
2023-01-20T22:31:36.375Z,3.63
2023-01-20T22:34:11.037Z,3.65
2023-01-20T22:36:45.019Z,4.05
2023-01-20T22:39:18.514Z,3.47
2023-01-20T22:41:51.783Z,3.25
2023-01-20T22:44:26.474Z,3.88
2023-01-20T22:46:59.935Z,3.05
2023-01-20T22:49:33.250Z,3.65
2023-01-20T22:52:06.746Z,3.38
2023-01-20T22:54:40.026Z,3.47
2023-01-20T22:57:13.316Z,3.72
2023-01-20T22:59:47.991Z,3.70
2023-01-20T23:02:21.376Z,3.92
2023-01-20T23:04:54.706Z,3.28
2023-01-20T23:07:28.179Z,3.63
2023-01-20T23:10:01.563Z,4.40
2023-01-20T23:12:34.859Z,3.83
2023-01-20T23:15:10.450Z,4.25
2023-01-20T23:17:43.831Z,3.40
2023-01-20T23:20:17.956Z,3.85
2023-01-20T23:22:51.558Z,3.75
2023-01-20T23:25:25.085Z,3.65
2023-01-20T23:27:58.365Z,3.78
2023-01-20T23:30:33.041Z,3.67
2023-01-20T23:33:06.960Z,3.80
2023-01-20T23:35:40.269Z,4.05
2023-01-20T23:38:13.583Z,3.58
2023-01-20T23:40:49.663Z,3.65
2023-01-20T23:43:23.020Z,3.88
2023-01-20T23:45:59.913Z,3.80
2023-01-20T23:48:34.239Z,4.78
2023-01-20T23:51:08.207Z,4.43
2023-01-20T23:53:41.775Z,3.92
2023-01-20T23:56:16.994Z,4.40
2023-01-20T23:58:51.087Z,3.45
